M I D A S
Marine Information and Data Acquisition System
Tripno 1358 of the Zeeleeuw from 2007-09-27 06:33:04 to 2007-09-27 14:06:36
Back to CruiseResearch ActivitiesStationsMapUnderway DataData graphs

EquipmentUnitsComment
TimeDGPSUTC
LatitudeDGPSDM.mWGS84
LongitudeDGPSDM.mWGS84
HeadingGyrodeg 
SOGDGPSknotsSpeed over ground
COGDGPSdegCourse over ground
DepthEcho soundermeters200 kHz
Missing or incorrect values are displayed as -999
Navigation data collected by the RV Zeeleeuw from 2007-09-27 06:35:30 to 2007-09-27 14:17:11
Time Latitude Longitude Heading SOG COG Depth
2007-09-27 06:36:36 51°13.62 2°56.027 112.2 4.3 290 -999
2007-09-27 06:37:36 51°13.657 2°55.902 119.5 5.7 297 -999
2007-09-27 06:38:36 51°13.712 2°55.779 140.8 5.9 316 -999
2007-09-27 06:39:36 51°13.755 2°55.725 148.9 1.3 321 9.5
2007-09-27 06:40:36 51°13.781 2°55.691 147.8 3 324 -999
2007-09-27 06:41:36 51°13.838 2°55.639 154.9 4.2 333 -999
2007-09-27 06:42:36 51°13.903 2°55.604 177.9 3.6 350 -999
2007-09-27 06:43:35 51°13.95 2°55.602 197.5 2.3 9 10.2
2007-09-27 06:44:36 51°13.979 2°55.616 220.6 1.5 25 -999
2007-09-27 06:45:35 51°13.991 2°55.627 241.4 0.3 355 10
2007-09-27 06:46:36 51°13.995 2°55.622 265.6 0.3 320 9.4
2007-09-27 06:47:35 51°13.999 2°55.619 280.6 0.3 342 9.7
2007-09-27 06:48:35 51°14.002 2°55.617 289.3 0.2 356 9.6
2007-09-27 06:49:35 51°14.005 2°55.614 294.6 0.2 323 9.3
2007-09-27 06:50:36 51°14.007 2°55.613 299.1 0.1 323 9.1
2007-09-27 06:51:35 51°14.007 2°55.616 300.5 0.3 119 9.1
2007-09-27 06:52:35 51°14.005 2°55.624 298 0.4 122 9
2007-09-27 06:53:36 51°14.002 2°55.635 292.1 0.3 108 9.4
2007-09-27 06:54:35 51°14.009 2°55.62 297 2.4 302 9
2007-09-27 06:55:36 51°14.059 2°55.5 306.8 6.9 309 9.2
2007-09-27 06:56:36 51°14.164 2°55.381 330 8.3 327 -999
2007-09-27 06:57:35 51°14.285 2°55.218 316.3 10.5 312 9.3
2007-09-27 06:58:35 51°14.39 2°54.984 307.2 11.3 301 9.3
2007-09-27 06:59:35 51°14.407 2°54.663 275.6 13 269 9.7
2007-09-27 07:00:34 51°14.334 2°54.336 239 13.9 242 8.2
2007-09-27 07:01:32 51°14.22 2°54.032 239.4 13.7 237 7.7
2007-09-27 07:02:32 51°14.101 2°53.715 238.7 14.3 238 7.9
2007-09-27 07:03:32 51°13.989 2°53.387 244.5 14 241 8.3
2007-09-27 07:04:32 51°13.871 2°53.059 240.1 14.6 243 8.4
2007-09-27 07:05:32 51°13.754 2°52.728 243 14.6 241 8.6
2007-09-27 07:06:32 51°13.633 2°52.398 241.7 14.4 237 8.8
2007-09-27 07:07:32 51°13.513 2°52.067 245.3 14.3 244 9.1
2007-09-27 07:08:32 51°13.392 2°51.735 243.3 14.6 237 8.7
2007-09-27 07:09:32 51°13.271 2°51.402 238.5 14.7 237 9.1
2007-09-27 07:10:32 51°13.153 2°51.064 241.8 14.9 240 9.4
2007-09-27 07:11:32 51°13.033 2°50.728 242.2 15.1 241 9.5
2007-09-27 07:12:32 51°12.913 2°50.39 243.7 14.6 238 9.7
2007-09-27 07:13:32 51°12.788 2°50.058 241.5 14.6 233 9.7
2007-09-27 07:14:32 51°12.661 2°49.727 238 15 230 9.6
2007-09-27 07:15:32 51°12.536 2°49.396 240.8 14.7 245 9.7
2007-09-27 07:16:32 51°12.412 2°49.061 240.6 15 240 9.3
2007-09-27 07:17:32 51°12.293 2°48.724 245.1 14.6 241 9.5
2007-09-27 07:18:32 51°12.177 2°48.389 246.8 14.4 243 9.7
2007-09-27 07:19:32 51°12.106 2°48.026 258.9 14.3 257 10.2
2007-09-27 07:20:32 51°12.037 2°47.657 256.7 14.5 257 10.6
2007-09-27 07:21:32 51°11.97 2°47.285 259.2 14.5 255 11
2007-09-27 07:22:32 51°11.915 2°46.91 264.8 14.5 257 11.3
2007-09-27 07:23:32 51°11.865 2°46.533 261.3 14.5 262 12.2
2007-09-27 07:24:32 51°11.812 2°46.159 262 14.8 258 12.3
2007-09-27 07:25:32 51°11.763 2°45.782 262.7 14.4 262 11.6
2007-09-27 07:26:32 51°11.713 2°45.406 261.6 14.4 258 12.3
2007-09-27 07:27:32 51°11.666 2°45.03 262.2 14.6 260 11.9
2007-09-27 07:28:32 51°11.617 2°44.656 262 14.6 258 12.1
2007-09-27 07:29:32 51°11.581 2°44.282 266.1 14.4 263 11.7
2007-09-27 07:30:32 51°11.553 2°43.919 266.9 13.8 264 11.8
2007-09-27 07:31:32 51°11.529 2°43.573 269.4 12.5 262 11
2007-09-27 07:32:32 51°11.506 2°43.227 269.1 12.7 263 10.4
2007-09-27 07:33:32 51°11.479 2°42.88 267.6 13.4 259 10.4
2007-09-27 07:34:32 51°11.456 2°42.535 268.3 13.1 264 10.5
2007-09-27 07:35:32 51°11.431 2°42.186 269.4 13.1 265 10.4
2007-09-27 07:36:32 51°11.398 2°41.835 264.6 13.6 261 10.6
2007-09-27 07:37:32 51°11.333 2°41.485 256.2 14.1 251 11.3
2007-09-27 07:38:32 51°11.253 2°41.141 255.4 13.7 242 11.8
2007-09-27 07:39:32 51°11.117 2°40.838 231.4 13.8 232 12.2
2007-09-27 07:40:32 51°10.968 2°40.543 230.3 14.5 233 12.1
2007-09-27 07:41:32 51°10.818 2°40.25 230.8 14.3 229 13.1
2007-09-27 07:42:32 51°10.686 2°39.984 233.8 9.9 235 13.6
2007-09-27 07:43:32 51°10.617 2°39.832 236.4 5.8 232 13.8
2007-09-27 07:44:32 51°10.566 2°39.735 229 4.2 225 14.1
2007-09-27 07:45:32 51°10.523 2°39.651 237.2 4.4 241 14.1
2007-09-27 07:46:32 51°10.496 2°39.56 266.8 3.4 241 14.4
2007-09-27 07:47:32 51°10.477 2°39.485 273.5 2.8 249 14.3
2007-09-27 07:48:32 51°10.459 2°39.421 285.4 2.4 251 14.6
2007-09-27 07:49:32 51°10.441 2°39.366 295.2 1.9 242 14
2007-09-27 07:50:32 51°10.421 2°39.318 304.5 2 233 14.5
2007-09-27 07:51:32 51°10.401 2°39.273 312.7 2.3 233 14.4
2007-09-27 07:52:32 51°10.378 2°39.231 313.8 2.2 229 14.1
2007-09-27 07:53:32 51°10.353 2°39.189 308.7 1.7 230 14.5
2007-09-27 07:54:32 51°10.329 2°39.147 301.7 1.6 235 14.7
2007-09-27 07:55:32 51°10.306 2°39.103 301.1 1.7 237 14.7
2007-09-27 07:56:32 51°10.282 2°39.056 299.7 2.4 233 14.8
2007-09-27 07:57:32 51°10.258 2°39.011 290.1 2.6 226 14.6
2007-09-27 07:58:32 51°10.235 2°38.967 288.3 1.8 242 14.5
2007-09-27 07:59:32 51°10.211 2°38.923 285 2.3 238 14.9
2007-09-27 08:00:32 51°10.202 2°38.814 294.3 4.7 272 14.7
2007-09-27 08:01:32 51°10.223 2°38.701 329.5 4.3 302 15.9
2007-09-27 08:02:32 51°10.257 2°38.61 327.7 4.3 294 15.8
2007-09-27 08:03:32 51°10.276 2°38.494 308.7 4.5 284 15.5
2007-09-27 08:04:32 51°10.288 2°38.373 303.8 4.6 280 15.6
2007-09-27 08:05:32 51°10.284 2°38.247 287.6 4.9 264 15.7
2007-09-27 08:06:32 51°10.279 2°38.118 289.9 5.1 262 16.3
2007-09-27 08:07:32 51°10.268 2°37.991 273.9 5 259 16.9
2007-09-27 08:08:32 51°10.246 2°37.859 270.4 5 258 17
2007-09-27 08:09:32 51°10.215 2°37.734 245.1 5.2 237 17.5
2007-09-27 08:10:32 51°10.169 2°37.616 245.1 5 245 17.2
2007-09-27 08:11:32 51°10.144 2°37.495 278.3 4.6 256 17.5
2007-09-27 08:12:32 51°10.142 2°37.382 309.2 4.1 275 17.6
2007-09-27 08:13:32 51°10.149 2°37.295 326.8 3.2 286 18
2007-09-27 08:14:32 51°10.168 2°37.2 313.6 4.5 283 17.8
2007-09-27 08:15:32 51°10.17 2°37.076 286.6 5 266 17.6
2007-09-27 08:16:32 51°10.171 2°36.955 290 4.4 271 17.6
2007-09-27 08:17:32 51°10.163 2°36.839 276.6 4.5 260 17.6
2007-09-27 08:18:32 51°10.138 2°36.719 250.4 4.9 246 17.3
2007-09-27 08:19:32 51°10.09 2°36.607 237.2 5.2 233 17.8
2007-09-27 08:20:32 51°10.042 2°36.492 239.9 5.1 235 17.4
2007-09-27 08:21:32 51°9.999 2°36.384 242.2 4.8 241 17.8
2007-09-27 08:22:32 51°9.96 2°36.276 249.5 4.7 252 17.9
2007-09-27 08:23:32 51°9.928 2°36.164 256.2 4.5 259 17.4
2007-09-27 08:24:32 51°9.9 2°36.05 263.8 4.7 246 17.8
2007-09-27 08:25:32 51°9.88 2°35.937 271.4 4.4 252 17.9
2007-09-27 08:26:32 51°9.858 2°35.817 264.7 4.9 247 18.2
2007-09-27 08:27:32 51°9.833 2°35.693 263.8 4.9 254 18
2007-09-27 08:28:32 51°9.808 2°35.568 261.7 4.9 253 18.2
2007-09-27 08:29:32 51°9.784 2°35.445 265.1 4.7 253 18.2
2007-09-27 08:30:32 51°9.764 2°35.327 268.5 4.5 255 18.5
2007-09-27 08:31:32 51°9.757 2°35.22 289.8 3.6 265 18.1
2007-09-27 08:32:32 51°9.757 2°35.125 303.4 3.4 272 18
2007-09-27 08:33:32 51°9.764 2°35.045 316 3.1 286 17.7
2007-09-27 08:34:32 51°9.775 2°34.973 327.3 3 274 17.6
2007-09-27 08:35:32 51°9.783 2°34.911 336.2 2 278 16.1
2007-09-27 08:36:32 51°9.781 2°34.862 342.4 1.5 256 15.9
2007-09-27 08:37:32 51°9.768 2°34.816 342.5 3 243 15.7
2007-09-27 08:38:32 51°9.749 2°34.777 332.3 2 224 15.9
2007-09-27 08:39:32 51°9.725 2°34.74 317.5 1.9 227 16.3
2007-09-27 08:40:32 51°9.702 2°34.704 310.6 2.3 225 16.3
2007-09-27 08:41:32 51°9.68 2°34.664 303.4 2.6 240 16.8
2007-09-27 08:42:32 51°9.694 2°34.595 348.9 2.8 333 15.9
2007-09-27 08:43:32 51°9.738 2°34.621 50.8 4.7 45 14.8
2007-09-27 08:44:32 51°9.825 2°34.742 45.7 8 40 13
2007-09-27 08:45:32 51°9.928 2°34.883 45.5 7.8 44 -999
2007-09-27 08:46:32 51°10.032 2°35.023 40.6 8.6 38 11.1
2007-09-27 08:47:32 51°10.155 2°35.159 38.9 9.6 36 11.4
2007-09-27 08:48:32 51°10.29 2°35.31 40.3 10.2 34 11.4
2007-09-27 08:49:32 51°10.433 2°35.469 38.9 10.5 35 10.1
2007-09-27 08:50:32 51°10.575 2°35.629 40.9 10.5 37 10.2
2007-09-27 08:51:32 51°10.713 2°35.787 39.8 10.2 37 10.5
2007-09-27 08:52:32 51°10.852 2°35.946 39.6 10.5 36 10.6
2007-09-27 08:53:32 51°10.993 2°36.107 39.8 10.2 38 10.6
2007-09-27 08:54:32 51°11.134 2°36.27 40 10.4 37 10.9
2007-09-27 08:55:32 51°11.274 2°36.435 39.9 10.3 36 11.4
2007-09-27 08:56:32 51°11.417 2°36.596 36.9 10.2 32 11.6
2007-09-27 08:57:32 51°11.563 2°36.743 37 10.6 34 11.7
2007-09-27 08:58:33 51°11.713 2°36.894 37.7 10.1 32 11.4
2007-09-27 08:59:32 51°11.855 2°37.039 37.4 10.5 37 11.8
2007-09-27 09:00:32 51°11.999 2°37.188 37.6 10.5 36 11.4
2007-09-27 09:01:32 51°12.143 2°37.335 37.8 9.9 33 11.1
2007-09-27 09:02:32 51°12.284 2°37.48 36.8 10.4 35 12.4
2007-09-27 09:03:32 51°12.428 2°37.623 35.2 10.8 32 13
2007-09-27 09:04:32 51°12.575 2°37.757 35.5 9.9 30 13.3
2007-09-27 09:05:33 51°12.725 2°37.896 34.1 10.2 28 12.9
2007-09-27 09:06:32 51°12.871 2°38.031 36.2 10.4 31 13.1
2007-09-27 09:07:32 51°13.017 2°38.172 35.5 10.4 32 13.7
2007-09-27 09:08:32 51°13.167 2°38.31 35.4 10.5 29 14.4
2007-09-27 09:09:32 51°13.312 2°38.445 34.5 10.1 30 13.5
2007-09-27 09:10:32 51°13.465 2°38.589 35.7 10.6 34 14.9
2007-09-27 09:11:32 51°13.617 2°38.728 36.4 10.4 29 14.8
2007-09-27 09:12:32 51°13.794 2°38.773 3.8 11.1 353 14.1
2007-09-27 09:13:32 51°13.97 2°38.723 356.4 10.8 344 11.9
2007-09-27 09:14:32 51°14.097 2°38.518 305.5 12 294 15.3
2007-09-27 09:15:32 51°14.103 2°38.178 269.6 13.6 259 18
2007-09-27 09:16:32 51°14.049 2°37.825 257.6 14 254 18.6
2007-09-27 09:17:32 51°13.945 2°37.491 247.4 14.4 248 19.8
2007-09-27 09:18:32 51°13.841 2°37.155 245.4 14.5 247 19.1
2007-09-27 09:19:32 51°13.737 2°36.819 247.3 13.8 244 19.7
2007-09-27 09:20:32 51°13.633 2°36.482 250.9 14 245 19.3
2007-09-27 09:21:32 51°13.531 2°36.146 251.4 13.7 242 17.8
2007-09-27 09:22:32 51°13.428 2°35.808 250.9 14 244 17.7
2007-09-27 09:23:32 51°13.325 2°35.466 247.6 14.2 246 17.7
2007-09-27 09:24:32 51°13.222 2°35.129 248.6 14.6 248 17
2007-09-27 09:25:32 51°13.12 2°34.796 247.6 13.9 243 17.7
2007-09-27 09:26:32 51°13.018 2°34.465 249.3 14 239 17.4
2007-09-27 09:27:32 51°12.916 2°34.13 248.3 14.3 245 17
2007-09-27 09:28:32 51°12.814 2°33.802 249.3 13.6 243 15.8
2007-09-27 09:29:32 51°12.711 2°33.477 248.1 13.7 246 15.5
2007-09-27 09:30:32 51°12.607 2°33.154 250.6 13.8 244 15
2007-09-27 09:31:32 51°12.503 2°32.829 248.6 13.5 241 16.4
2007-09-27 09:32:32 51°12.402 2°32.514 249.7 13.8 238 17.3
2007-09-27 09:33:33 51°12.3 2°32.186 248.5 13.7 248 18.4
2007-09-27 09:34:32 51°12.198 2°31.871 250.4 13.4 242 19.3
2007-09-27 09:35:33 51°12.092 2°31.544 249.2 13.5 247 20.7
2007-09-27 09:36:32 51°11.986 2°31.231 249.8 13.5 248 20.7
2007-09-27 09:37:32 51°11.878 2°30.908 249.8 13.9 242 21.6
2007-09-27 09:38:32 51°11.773 2°30.585 251.7 13.4 245 22
2007-09-27 09:39:32 51°11.687 2°30.251 259.7 13.3 252 22.4
2007-09-27 09:40:32 51°11.605 2°29.914 255.9 13.7 250 23
2007-09-27 09:41:32 51°11.525 2°29.58 257.4 14 245 22.8
2007-09-27 09:42:33 51°11.442 2°29.235 258.5 13.5 244 23.1
2007-09-27 09:43:32 51°11.379 2°28.894 263 13.5 254 23.8
2007-09-27 09:44:33 51°11.338 2°28.537 274 13.3 267 23
2007-09-27 09:45:32 51°11.347 2°28.197 282.8 12.9 273 23.5
2007-09-27 09:46:32 51°11.364 2°27.854 286.4 13.1 282 22.9
2007-09-27 09:47:33 51°11.46 2°27.57 318.5 11.6 314 18.7
2007-09-27 09:48:32 51°11.622 2°27.455 0.8 11.1 353 12
2007-09-27 09:49:33 51°11.807 2°27.453 7.1 10 359 -999
2007-09-27 09:50:33 51°11.965 2°27.414 354.3 9.9 348 10.3
2007-09-27 09:51:33 51°12.132 2°27.387 8 10.4 4 9.9
2007-09-27 09:52:33 51°12.304 2°27.439 23.1 10.4 21 11.8
2007-09-27 09:53:33 51°12.467 2°27.551 25.3 11.2 24 13.7
2007-09-27 09:54:32 51°12.636 2°27.657 25.4 11 22 16.1
2007-09-27 09:55:32 51°12.804 2°27.776 32.6 11.1 28 19.1
2007-09-27 09:56:32 51°12.964 2°27.92 32.8 10.8 30 19.7
2007-09-27 09:57:33 51°13.133 2°28.061 31.9 11 26 21.9
2007-09-27 09:58:32 51°13.297 2°28.194 29.6 11.4 26 22.6
2007-09-27 09:59:32 51°13.46 2°28.337 34.8 10.7 34 22
2007-09-27 10:00:33 51°13.604 2°28.501 37.3 10.6 33 20.6
2007-09-27 10:01:33 51°13.755 2°28.667 36.4 11 30 19.9
2007-09-27 10:02:33 51°13.903 2°28.83 36.3 10.9 32 20.7
2007-09-27 10:03:33 51°14.054 2°29.005 38.8 11.5 38 20.2
2007-09-27 10:04:33 51°14.204 2°29.189 39.2 11.1 35 20.5
2007-09-27 10:05:33 51°14.352 2°29.37 39.9 11.3 36 21.4
2007-09-27 10:06:32 51°14.493 2°29.553 40 11.1 44 23.6
2007-09-27 10:07:33 51°14.641 2°29.74 38.8 11.2 38 24.1
2007-09-27 10:08:32 51°14.783 2°29.92 39.6 11.2 38 25.8
2007-09-27 10:09:32 51°14.932 2°30.103 39.5 11.5 38 27.3
2007-09-27 10:10:32 51°15.082 2°30.28 39.4 11.3 37 27.6
2007-09-27 10:11:33 51°15.232 2°30.465 38.5 11.2 40 28.1
2007-09-27 10:12:32 51°15.378 2°30.647 41.3 11.1 43 27.6
2007-09-27 10:13:32 51°15.52 2°30.834 41.2 11.1 37 28.2
2007-09-27 10:14:32 51°15.661 2°31.031 43.5 11.2 43 28
2007-09-27 10:15:32 51°15.782 2°31.263 59.3 11.6 61 28.2
2007-09-27 10:16:32 51°15.844 2°31.556 72.2 11.9 77 27.6
2007-09-27 10:17:32 51°15.903 2°31.856 71.2 11.7 73 26.7
2007-09-27 10:18:32 51°15.916 2°32.171 86.9 11.9 87 23.5
2007-09-27 10:19:32 51°15.917 2°32.49 85.4 11.8 94 13.8
2007-09-27 10:20:32 51°15.911 2°32.81 90.8 12.7 93 9.1
2007-09-27 10:21:32 51°15.887 2°33.126 90.1 12.1 92 10.4
2007-09-27 10:22:32 51°15.864 2°33.451 94.2 12.2 100 10.5
2007-09-27 10:23:32 51°15.83 2°33.773 98.3 12.8 108 13
2007-09-27 10:24:32 51°15.795 2°34.084 97.4 11.8 110 18.9
2007-09-27 10:25:32 51°15.751 2°34.392 97.4 11.8 99 26.3
2007-09-27 10:26:32 51°15.706 2°34.691 96.2 11 106 26.9
2007-09-27 10:27:32 51°15.668 2°34.986 97.5 11.3 102 28
2007-09-27 10:28:33 51°15.629 2°35.287 96 11.5 102 27.4
2007-09-27 10:29:32 51°15.594 2°35.582 99.6 11.5 104 27.5
2007-09-27 10:30:32 51°15.56 2°35.889 97.6 12 99 26.6
2007-09-27 10:31:32 51°15.527 2°36.197 100.1 12 98 21.9
2007-09-27 10:32:32 51°15.492 2°36.508 101.6 11.8 97 16.4
2007-09-27 10:33:32 51°15.463 2°36.823 97.6 11.7 95 14
2007-09-27 10:34:32 51°15.433 2°37.145 98.3 12.3 97 13.9
2007-09-27 10:35:32 51°15.4 2°37.47 98.7 12.8 102 12
2007-09-27 10:36:32 51°15.369 2°37.794 97 12.3 95 -999
2007-09-27 10:37:32 51°15.336 2°38.119 98.7 12.3 98 13.1
2007-09-27 10:38:32 51°15.343 2°38.437 77.6 11.9 78 16
2007-09-27 10:39:32 51°15.379 2°38.747 77.5 11.9 86 18.8
2007-09-27 10:40:32 51°15.458 2°39.023 62.6 11.5 57 20.2
2007-09-27 10:41:33 51°15.547 2°39.296 60.7 11.5 65 20.6
2007-09-27 10:42:32 51°15.632 2°39.564 63.8 11.8 67 21.1
2007-09-27 10:43:32 51°15.725 2°39.836 63.1 11.4 61 21
2007-09-27 10:44:32 51°15.838 2°40.076 45.2 11.3 41 21.6
2007-09-27 10:45:32 51°15.997 2°40.231 31.9 11.3 29 21.9
2007-09-27 10:46:33 51°16.16 2°40.382 32.8 11 30 22.6
2007-09-27 10:47:32 51°16.319 2°40.526 34.8 11 28 22.5
2007-09-27 10:48:32 51°16.484 2°40.673 32.3 11.5 26 24.1
2007-09-27 10:49:32 51°16.656 2°40.816 32 11.9 26 24.8
2007-09-27 10:50:32 51°16.831 2°40.96 32.1 11.7 28 24.7
2007-09-27 10:51:32 51°17.003 2°41.105 31.5 11.8 26 25.3
2007-09-27 10:52:33 51°17.181 2°41.226 26.5 11.2 22 -999
2007-09-27 10:53:32 51°17.359 2°41.346 26.8 11.8 23 25.9
2007-09-27 10:54:32 51°17.546 2°41.467 26.4 12 25 26
2007-09-27 10:55:33 51°17.727 2°41.566 14.6 10.7 8 24.7
2007-09-27 10:56:32 51°17.913 2°41.542 351.9 11.8 347 25.8
2007-09-27 10:57:33 51°18.108 2°41.455 351.7 11.8 343 25
2007-09-27 10:58:32 51°18.278 2°41.382 351 10.8 346 23.5
2007-09-27 10:59:33 51°18.46 2°41.308 350.9 10.9 342 22.4
2007-09-27 11:00:32 51°18.614 2°41.155 324.3 11.2 321 20.6
2007-09-27 11:01:32 51°18.759 2°40.96 323.6 10.8 317 16.3
2007-09-27 11:02:32 51°18.9 2°40.763 323.2 11.6 318 21.9
2007-09-27 11:03:32 51°19.046 2°40.568 324.2 11.7 322 18.5
2007-09-27 11:04:32 51°19.185 2°40.381 321.6 11.6 320 20.8
2007-09-27 11:05:32 51°19.328 2°40.19 323.6 11.4 321 25.3
2007-09-27 11:06:33 51°19.471 2°39.981 319.9 11.6 314 28.2
2007-09-27 11:07:33 51°19.607 2°39.773 320 11.5 314 32.2
2007-09-27 11:08:33 51°19.746 2°39.566 319.3 11.3 311 32.2
2007-09-27 11:09:33 51°19.89 2°39.363 319.9 11.5 318 29.3
2007-09-27 11:10:33 51°20.033 2°39.159 320.5 11.6 317 28.2
2007-09-27 11:11:33 51°20.172 2°38.958 318.6 11.4 316 26.5
2007-09-27 11:12:33 51°20.308 2°38.761 320.5 11.2 316 26.9
2007-09-27 11:13:33 51°20.449 2°38.559 320.4 11.7 319 27.4
2007-09-27 11:14:33 51°20.588 2°38.361 320.8 11.3 319 25.7
2007-09-27 11:15:33 51°20.725 2°38.162 321.2 10.9 315 24.3
2007-09-27 11:16:32 51°20.863 2°37.969 318.9 11.3 319 26.2
2007-09-27 11:17:32 51°21.007 2°37.77 321.6 11.2 320 26.8
2007-09-27 11:18:33 51°21.168 2°37.601 340.4 10.8 344 -999
2007-09-27 11:19:33 51°21.353 2°37.553 355.6 11.8 357 28.2
2007-09-27 11:20:33 51°21.549 2°37.532 358.1 11.5 355 28.2
2007-09-27 11:21:33 51°21.738 2°37.518 356.6 11.3 357 32
2007-09-27 11:22:33 51°21.93 2°37.493 354.9 11.6 355 32.8
2007-09-27 11:23:33 51°22.119 2°37.503 359.8 12 3 32.8
2007-09-27 11:24:33 51°22.31 2°37.51 0.7 11.1 1 32.3
2007-09-27 11:25:33 51°22.503 2°37.517 359.5 11.8 -999 32
2007-09-27 11:26:33 51°22.702 2°37.517 359.7 11.9 358 32.8
2007-09-27 11:27:33 51°22.896 2°37.512 359.8 11.8 359 30.6
2007-09-27 11:28:32 51°23.091 2°37.511 0.3 11.5 -999 28.5
2007-09-27 11:29:32 51°23.273 2°37.607 27 11.8 28 29.3
2007-09-27 11:30:33 51°23.451 2°37.76 27.7 11.9 29 28.6
2007-09-27 11:31:33 51°23.631 2°37.905 25.4 12.7 25 26.9
2007-09-27 11:32:33 51°23.809 2°38.05 29.1 11.7 32 28
2007-09-27 11:33:33 51°23.945 2°38.289 57 12.2 54 26.4
2007-09-27 11:34:33 51°24.063 2°38.558 55.8 12.3 53 28.2
2007-09-27 11:35:32 51°24.184 2°38.82 54.8 12 54 27.9
2007-09-27 11:36:33 51°24.31 2°39.089 57.9 12.6 55 29.4
2007-09-27 11:37:32 51°24.419 2°39.365 61.4 12.4 66 25
2007-09-27 11:38:33 51°24.53 2°39.65 61 12.8 58 29.3
2007-09-27 11:39:33 51°24.639 2°39.939 63.1 13 58 28.3
2007-09-27 11:40:32 51°24.744 2°40.22 61.6 12.2 59 28.5
2007-09-27 11:41:32 51°24.854 2°40.509 61.4 12.9 59 28.5
2007-09-27 11:42:32 51°24.967 2°40.792 62.7 12.8 60 28.2
2007-09-27 11:43:32 51°25.078 2°41.081 62.6 12.5 57 27.7
2007-09-27 11:44:32 51°25.19 2°41.367 60.9 12.9 63 28.9
2007-09-27 11:45:32 51°25.29 2°41.666 70.8 12.8 69 28.1
2007-09-27 11:46:32 51°25.376 2°41.98 72.3 12.6 68 27.5
2007-09-27 11:47:32 51°25.454 2°42.298 74 12.8 66 26.8
2007-09-27 11:48:32 51°25.527 2°42.621 74.6 12.8 67 26.9
2007-09-27 11:49:32 51°25.601 2°42.949 73 13.2 69 28.4
2007-09-27 11:50:32 51°25.672 2°43.278 74 13.1 68 27.9
2007-09-27 11:51:32 51°25.745 2°43.609 73.9 12.9 68 27.3
2007-09-27 11:52:32 51°25.82 2°43.939 73.6 13.2 69 28.4
2007-09-27 11:53:32 51°25.895 2°44.271 73.6 13.2 72 28.1
2007-09-27 11:54:32 51°25.969 2°44.6 74.7 13.1 65 29.5
2007-09-27 11:55:32 51°26.039 2°44.93 74.9 13.1 71 27.3
2007-09-27 11:56:32 51°26.116 2°45.255 73.3 12.9 69 27.6
2007-09-27 11:57:32 51°26.193 2°45.584 74.8 13.2 68 29.3
2007-09-27 11:58:32 51°26.271 2°45.911 74.9 13.3 69 29.5
2007-09-27 11:59:32 51°26.351 2°46.237 73.2 13.2 66 29.8
2007-09-27 12:00:32 51°26.432 2°46.564 74.2 13.1 71 27.5
2007-09-27 12:01:32 51°26.511 2°46.892 74.8 13 69 28
2007-09-27 12:02:32 51°26.588 2°47.224 74.7 13.5 68 29.3
2007-09-27 12:03:32 51°26.668 2°47.553 74.7 13.2 67 26.4
2007-09-27 12:04:32 51°26.746 2°47.882 74.6 13.2 69 27.4
2007-09-27 12:05:32 51°26.821 2°48.211 74.7 13.1 68 25.1
2007-09-27 12:06:33 51°26.896 2°48.547 76.3 13 74 25.5
2007-09-27 12:07:32 51°26.969 2°48.872 75.7 13.2 71 26.3
2007-09-27 12:08:32 51°27.042 2°49.201 76.2 13.2 72 25.6
2007-09-27 12:09:33 51°27.115 2°49.535 75.5 13.3 72 25.4
2007-09-27 12:10:33 51°27.188 2°49.867 75 13.3 73 25.7
2007-09-27 12:11:32 51°27.254 2°50.188 78.9 13 80 25.3
2007-09-27 12:12:33 51°27.267 2°50.536 92.9 12.8 85 24.9
2007-09-27 12:13:33 51°27.267 2°50.881 93.2 12.8 92 19
2007-09-27 12:14:32 51°27.204 2°51.197 126.9 13 121 22.4
2007-09-27 12:15:33 51°27.065 2°51.438 151.4 11.5 146 21.7
2007-09-27 12:16:33 51°26.883 2°51.541 180.7 11.6 169 26.4
2007-09-27 12:17:33 51°26.689 2°51.582 178.8 12.1 170 27.3
2007-09-27 12:18:33 51°26.496 2°51.637 177.5 11.8 169 28
2007-09-27 12:19:32 51°26.306 2°51.706 171.9 12.4 164 28.7
2007-09-27 12:20:32 51°26.118 2°51.779 177.9 11.5 164 29.1
2007-09-27 12:21:32 51°25.93 2°51.847 178.4 11 172 31
2007-09-27 12:22:32 51°25.74 2°51.874 179.4 11.8 176 32.1
2007-09-27 12:23:32 51°25.553 2°51.863 194.3 10.4 184 31.8
2007-09-27 12:24:32 51°25.367 2°51.808 201.8 10.9 194 26.4
2007-09-27 12:25:32 51°25.195 2°51.706 209.3 10.8 204 25.4
2007-09-27 12:26:32 51°25.028 2°51.596 211.7 10.3 204 25.7
2007-09-27 12:27:32 51°24.855 2°51.489 207.4 12 200 25.4
2007-09-27 12:28:33 51°24.684 2°51.381 206.9 11.1 193 24.5
2007-09-27 12:29:32 51°24.514 2°51.273 205.9 11.1 204 24.8
2007-09-27 12:30:33 51°24.338 2°51.173 206.9 11.2 193 24.8
2007-09-27 12:31:32 51°24.167 2°51.079 206.4 10.5 204 24.5
2007-09-27 12:32:32 51°24.002 2°50.962 213.1 9.8 203 23.7
2007-09-27 12:33:31 51°23.835 2°50.844 207.1 11.6 194 21.2
2007-09-27 12:34:32 51°23.668 2°50.721 209.6 10.9 207 17.4
2007-09-27 12:35:33 51°23.497 2°50.594 209.9 11.2 212 19.8
2007-09-27 12:36:33 51°23.331 2°50.469 209.9 11.6 206 19.2
2007-09-27 12:37:33 51°23.162 2°50.346 215 10.1 202 18.7
2007-09-27 12:38:32 51°22.994 2°50.255 193.2 11.8 190 18.4
2007-09-27 12:39:32 51°22.81 2°50.258 188.7 10.9 178 20.9
2007-09-27 12:40:32 51°22.63 2°50.207 206.5 10.6 200 25
2007-09-27 12:41:33 51°22.454 2°50.103 208 11.6 207 25.7
2007-09-27 12:42:33 51°22.294 2°49.964 217 11.9 213 25.5
2007-09-27 12:43:32 51°22.154 2°49.796 227.9 10.4 217 26.4
2007-09-27 12:44:32 51°22.011 2°49.624 221.4 10.4 214 26.4
2007-09-27 12:45:32 51°21.869 2°49.454 224.2 10.5 214 26.2
2007-09-27 12:46:32 51°21.726 2°49.278 224.7 10.5 212 25.6
2007-09-27 12:47:32 51°21.584 2°49.103 225.8 11.2 213 24.8
2007-09-27 12:48:32 51°21.445 2°48.923 222.9 11 222 24
2007-09-27 12:49:32 51°21.3 2°48.75 222.8 10.5 217 23.9
2007-09-27 12:50:32 51°21.156 2°48.574 224.4 10.7 222 23.4
2007-09-27 12:51:32 51°21.011 2°48.401 221.6 10.5 220 23.1
2007-09-27 12:52:32 51°20.869 2°48.222 222.3 11.1 227 22.8
2007-09-27 12:53:32 51°20.726 2°48.043 220 10.9 220 22.6
2007-09-27 12:54:32 51°20.583 2°47.862 221.5 11.1 212 22.7
2007-09-27 12:55:32 51°20.441 2°47.679 223.1 11 217 22.3
2007-09-27 12:56:32 51°20.301 2°47.501 221 10.4 214 21.8
2007-09-27 12:57:32 51°20.151 2°47.33 218.8 11.2 218 22.6
2007-09-27 12:58:32 51°19.998 2°47.173 213.3 11 210 22.9
2007-09-27 12:59:32 51°19.842 2°47.027 215.6 10.8 213 23.4
2007-09-27 13:00:32 51°19.684 2°46.886 212.6 10.8 207 23.3
2007-09-27 13:01:32 51°19.526 2°46.743 213.4 11.2 208 24
2007-09-27 13:02:32 51°19.374 2°46.593 215.9 10.3 209 23.3
2007-09-27 13:03:32 51°19.22 2°46.447 215.8 10.8 216 23.6
2007-09-27 13:04:32 51°19.065 2°46.301 214.1 10.6 216 24.2
2007-09-27 13:05:33 51°18.908 2°46.146 217.4 10.7 209 23.8
2007-09-27 13:06:32 51°18.757 2°45.997 216.6 10.7 206 23.9
2007-09-27 13:07:33 51°18.601 2°45.844 211.3 11 212 23.1
2007-09-27 13:08:32 51°18.449 2°45.699 214.6 11 211 23.1
2007-09-27 13:09:33 51°18.291 2°45.546 216.5 10.1 206 23
2007-09-27 13:10:32 51°18.136 2°45.397 214.6 9.9 222 22.3
2007-09-27 13:11:32 51°17.976 2°45.249 214.3 11.5 208 21
2007-09-27 13:12:32 51°17.821 2°45.102 216.2 10.7 213 20.7
2007-09-27 13:13:32 51°17.666 2°44.949 215.7 10.6 213 20.3
2007-09-27 13:14:32 51°17.511 2°44.796 216.5 10.4 210 19.9
2007-09-27 13:15:32 51°17.354 2°44.646 211.9 11.7 210 18.9
2007-09-27 13:16:32 51°17.196 2°44.499 214.1 10.6 214 19.1
2007-09-27 13:17:32 51°17.03 2°44.372 208.5 11.4 205 18.7
2007-09-27 13:18:32 51°16.864 2°44.245 210.7 11.5 203 18.1
2007-09-27 13:19:32 51°16.7 2°44.116 209.7 11.1 208 17.7
2007-09-27 13:20:32 51°16.536 2°43.985 212 11.1 210 17.4
2007-09-27 13:21:32 51°16.372 2°43.858 209.2 11.1 211 16.9
2007-09-27 13:22:32 51°16.206 2°43.728 212.2 11.3 210 16.3
2007-09-27 13:23:32 51°16.043 2°43.592 214.9 10.5 210 15.3
2007-09-27 13:24:32 51°15.875 2°43.468 214 9.9 201 15.1
2007-09-27 13:25:32 51°15.701 2°43.373 207.5 10.5 202 14.6
2007-09-27 13:26:32 51°15.525 2°43.279 201.3 11.8 198 14.6
2007-09-27 13:27:32 51°15.347 2°43.191 199.1 11.8 200 15.8
2007-09-27 13:28:32 51°15.17 2°43.097 204.8 11 197 16.3
2007-09-27 13:29:32 51°14.982 2°43.082 171.3 12.1 165 16.2
2007-09-27 13:30:32 51°14.81 2°43.249 150 12.7 134 20.5
2007-09-27 13:31:32 51°14.684 2°43.517 122.6 13 116 20.3
2007-09-27 13:32:32 51°14.64 2°43.854 94.8 13 90 18.8
2007-09-27 13:33:32 51°14.681 2°44.193 67.7 12.9 69 18.6
2007-09-27 13:34:32 51°14.753 2°44.522 77.6 13.3 74 18
2007-09-27 13:35:32 51°14.802 2°44.867 82.4 13.3 82 17.7
2007-09-27 13:36:32 51°14.844 2°45.214 84.6 13.5 80 16.9
2007-09-27 13:37:32 51°14.874 2°45.561 85.5 13.3 86 15.3
2007-09-27 13:38:32 51°14.903 2°45.902 84.3 12.8 82 14.1
2007-09-27 13:39:32 51°14.931 2°46.242 84.5 12.7 84 12.6
2007-09-27 13:40:32 51°14.958 2°46.581 85.9 12.9 83 12.1
2007-09-27 13:41:32 51°14.981 2°46.92 87 12.9 81 12.2
2007-09-27 13:42:32 51°15.006 2°47.258 83 12.9 82 12.6
2007-09-27 13:43:32 51°15.032 2°47.602 86.1 13.3 86 14.5
2007-09-27 13:44:32 51°15.057 2°47.949 89.4 13.1 89 15.1
2007-09-27 13:45:32 51°15.024 2°48.288 108.5 12.8 111 15.6
2007-09-27 13:46:32 51°14.993 2°48.623 103.2 12.9 97 15.4
2007-09-27 13:47:32 51°14.964 2°48.956 100.5 12.7 100 15.3
2007-09-27 13:48:32 51°14.931 2°49.292 99.4 12.9 95 15.5
2007-09-27 13:49:32 51°14.905 2°49.633 99.4 12.8 94 15.3
2007-09-27 13:50:32 51°14.878 2°49.977 101.8 13 97 15.2
2007-09-27 13:51:32 51°14.849 2°50.315 100.1 13 92 15
2007-09-27 13:52:32 51°14.824 2°50.658 98.1 13 96 14.5
2007-09-27 13:53:32 51°14.799 2°50.988 99.9 11.9 100 14.1
2007-09-27 13:54:32 51°14.774 2°51.317 101.4 13.2 95 13.4
2007-09-27 13:55:32 51°14.748 2°51.655 100.5 12.8 97 13
2007-09-27 13:56:32 51°14.716 2°51.992 103 12.9 100 12.7
2007-09-27 13:57:32 51°14.686 2°52.325 102.2 12.6 103 11.9
2007-09-27 13:58:32 51°14.661 2°52.661 104.8 12.6 96 12
2007-09-27 13:59:32 51°14.634 2°52.996 104.1 12.8 101 11.7
2007-09-27 14:00:32 51°14.61 2°53.336 104.8 12.8 104 11.2
2007-09-27 14:01:32 51°14.568 2°53.668 108.2 12.9 99 12.2
2007-09-27 14:02:32 51°14.534 2°53.974 106.6 11.4 102 12.8
2007-09-27 14:03:32 51°14.489 2°54.283 109.4 11.9 107 13.2
2007-09-27 14:04:32 51°14.439 2°54.608 112 12.5 102 13.4
2007-09-27 14:05:32 51°14.378 2°54.939 110.3 13.1 109 12.4
2007-09-27 14:06:36 51°14.271 2°55.229 130.5 11.8 133 13.2
2007-09-27 14:07:36 51°14.15 2°55.389 155.5 7.5 154 12.6
2007-09-27 14:08:36 51°14.049 2°55.467 156.4 6.5 155 -999
2007-09-27 14:09:36 51°13.952 2°55.538 157.5 6.5 155 12.9
2007-09-27 14:10:35 51°13.855 2°55.608 157.1 6.2 155 13.3
2007-09-27 14:11:34 51°13.77 2°55.681 149.6 5.8 145 13.4
2007-09-27 14:12:32 51°13.704 2°55.78 131.2 5.3 130 14.4
2007-09-27 14:13:36 51°13.656 2°55.891 125 4.5 124 -999
2007-09-27 14:14:36 51°13.619 2°55.991 113 4.1 115 -999
2007-09-27 14:15:36 51°13.606 2°56.071 104.1 2.3 101 -999
2007-09-27 14:16:36 51°13.601 2°56.096 108.4 0.5 114 -999